createdAt,value
2022-12-11T00:01:54.883Z,1.53
2022-12-11T00:04:25.421Z,1.44
2022-12-11T00:06:58.770Z,1.48
2022-12-11T00:09:29.136Z,1.38
2022-12-11T00:12:00.028Z,1.36
2022-12-11T00:14:30.284Z,1.36
2022-12-11T00:17:00.633Z,1.35
2022-12-11T00:19:31.027Z,1.31
2022-12-11T00:22:05.114Z,1.29
2022-12-11T00:24:35.440Z,1.30
2022-12-11T00:27:05.523Z,1.19
2022-12-11T00:29:36.913Z,1.30
2022-12-11T00:32:07.334Z,1.24
2022-12-11T00:34:37.465Z,1.21
2022-12-11T00:37:10.278Z,1.21
2022-12-11T00:39:41.262Z,1.16
2022-12-11T00:42:11.812Z,1.21
2022-12-11T00:44:42.140Z,1.17
2022-12-11T00:47:12.853Z,1.22
2022-12-11T00:49:50.202Z,1.16
2022-12-11T00:52:23.158Z,1.21
2022-12-11T00:54:53.490Z,1.14
2022-12-11T00:57:23.490Z,1.14
2022-12-11T00:59:53.523Z,1.14
2022-12-11T01:02:23.760Z,1.21
2022-12-11T01:04:54.122Z,1.08
2022-12-11T01:07:28.068Z,1.05
2022-12-11T01:10:10.447Z,1.06
2022-12-11T01:12:40.642Z,1.01
2022-12-11T01:15:12.932Z,1.04
2022-12-11T01:17:43.599Z,0.97
2022-12-11T01:20:14.808Z,0.98
2022-12-11T01:22:47.635Z,0.94
2022-12-11T01:25:18.323Z,0.92
2022-12-11T01:27:48.628Z,0.93
2022-12-11T01:30:18.758Z,0.89
2022-12-11T01:32:49.263Z,0.90
2022-12-11T01:35:21.267Z,0.77
2022-12-11T01:37:54.778Z,0.73
2022-12-11T01:40:26.320Z,0.70
2022-12-11T01:42:56.536Z,0.68
2022-12-11T01:45:32.784Z,0.60
2022-12-11T01:48:11.635Z,0.58
2022-12-11T01:50:47.659Z,0.49
2022-12-11T01:53:24.945Z,0.42
2022-12-11T01:55:58.469Z,0.37
2022-12-11T01:58:34.273Z,0.30
2022-12-11T02:01:07.147Z,0.22
2022-12-11T02:03:37.418Z,0.18
2022-12-11T02:06:08.256Z,0.21
2022-12-11T02:08:41.105Z,0.11
2022-12-11T02:11:17.449Z,0.05
2022-12-11T02:13:55.731Z,0.01
2022-12-11T02:16:33.045Z,-0.03
2022-12-11T02:19:11.522Z,-0.05
2022-12-11T02:21:47.979Z,-0.14
2022-12-11T02:24:43.140Z,-0.16
2022-12-11T02:27:27.235Z,-0.16
2022-12-11T02:30:03.446Z,-0.17
2022-12-11T02:32:40.389Z,-0.17
2022-12-11T02:35:16.776Z,-0.17
2022-12-11T02:37:50.504Z,-0.15
2022-12-11T02:40:26.370Z,-0.15
2022-12-11T02:42:59.460Z,-0.17
2022-12-11T02:45:35.029Z,-0.14
2022-12-11T02:48:08.556Z,-0.17
2022-12-11T02:50:42.177Z,-0.15
2022-12-11T02:53:15.688Z,-0.14
2022-12-11T02:55:47.819Z,-0.18
2022-12-11T02:58:21.305Z,-0.18
2022-12-11T03:00:55.355Z,-0.19
2022-12-11T03:03:26.863Z,-0.21
2022-12-11T03:05:57.111Z,-0.18
2022-12-11T03:08:28.060Z,-0.20
2022-12-11T03:10:58.353Z,-0.17
2022-12-11T03:13:28.621Z,-0.16
2022-12-11T03:16:14.391Z,-0.18
2022-12-11T03:18:52.030Z,-0.18
2022-12-11T03:21:29.708Z,-0.19
2022-12-11T03:24:06.972Z,-0.13
2022-12-11T03:26:44.128Z,-0.16
2022-12-11T03:29:20.542Z,-0.11
2022-12-11T03:31:57.689Z,-0.12
2022-12-11T03:34:33.214Z,-0.07
2022-12-11T03:37:04.292Z,-0.07
2022-12-11T03:39:37.397Z,-0.03
2022-12-11T03:42:11.377Z,-0.01
2022-12-11T03:44:42.059Z,-0.01
2022-12-11T03:47:19.293Z,0.04
2022-12-11T03:49:51.553Z,0.08
2022-12-11T03:52:23.013Z,0.11
2022-12-11T03:54:54.740Z,0.17
2022-12-11T03:57:28.897Z,0.13
2022-12-11T03:59:59.065Z,0.17
2022-12-11T04:02:35.301Z,0.16
2022-12-11T04:05:06.132Z,0.23
2022-12-11T04:07:36.223Z,0.21
2022-12-11T04:10:07.987Z,0.23
2022-12-11T04:12:38.027Z,0.26
2022-12-11T04:15:10.342Z,0.27
2022-12-11T04:17:59.133Z,0.24
2022-12-11T04:20:41.667Z,0.23
2022-12-11T04:23:28.853Z,0.27
2022-12-11T04:26:07.956Z,0.25
2022-12-11T04:28:38.972Z,0.30
2022-12-11T04:31:11.146Z,0.27
2022-12-11T04:33:44.334Z,0.27
2022-12-11T04:36:15.871Z,0.24
2022-12-11T04:38:45.955Z,0.23
2022-12-11T04:41:18.292Z,0.24
2022-12-11T04:43:49.044Z,0.24
2022-12-11T04:46:21.779Z,0.21
2022-12-11T04:48:57.882Z,0.24
2022-12-11T04:51:35.527Z,0.27
2022-12-11T04:54:05.759Z,0.26
2022-12-11T04:56:35.821Z,0.27
2022-12-11T04:59:06.149Z,0.22
2022-12-11T05:01:36.353Z,0.23
2022-12-11T05:04:09.627Z,0.26
2022-12-11T05:06:39.797Z,0.23
2022-12-11T05:09:10.016Z,0.26
2022-12-11T05:11:40.129Z,0.25
2022-12-11T05:14:10.148Z,0.25
2022-12-11T05:16:40.451Z,0.26
2022-12-11T05:19:13.513Z,0.25
2022-12-11T05:21:44.215Z,0.25
2022-12-11T05:24:14.410Z,0.22
2022-12-11T05:26:44.642Z,0.29
2022-12-11T05:29:14.874Z,0.29
2022-12-11T05:31:45.137Z,0.28
2022-12-11T05:34:18.128Z,0.29
2022-12-11T05:36:48.497Z,0.30
2022-12-11T05:39:18.678Z,0.31
2022-12-11T05:41:48.772Z,0.31
2022-12-11T05:44:18.748Z,0.27
2022-12-11T05:46:49.874Z,0.29
2022-12-11T05:49:27.414Z,0.25
2022-12-11T05:52:01.150Z,0.23
2022-12-11T05:54:31.208Z,0.25
2022-12-11T05:57:01.715Z,0.26
2022-12-11T05:59:31.772Z,0.23
2022-12-11T06:02:02.233Z,0.26
2022-12-11T06:04:34.966Z,0.26
2022-12-11T06:07:05.083Z,0.29
2022-12-11T06:09:35.225Z,0.31
2022-12-11T06:12:05.312Z,0.28
2022-12-11T06:14:35.332Z,0.33
2022-12-11T06:17:06.574Z,0.32
2022-12-11T06:19:39.899Z,0.33
2022-12-11T06:22:09.926Z,0.32
2022-12-11T06:24:40.396Z,0.31
2022-12-11T06:27:10.808Z,0.34
2022-12-11T06:29:41.035Z,0.32
2022-12-11T06:32:11.161Z,0.35
2022-12-11T06:34:44.139Z,0.40
2022-12-11T06:37:14.456Z,0.44
2022-12-11T06:39:44.742Z,0.46
2022-12-11T06:42:14.822Z,0.42
2022-12-11T06:44:45.273Z,0.40
2022-12-11T06:47:15.426Z,0.41
2022-12-11T06:49:48.719Z,0.42
2022-12-11T06:52:18.885Z,0.41
2022-12-11T06:54:48.917Z,0.45
2022-12-11T06:57:19.858Z,0.38
2022-12-11T06:59:50.641Z,0.39
2022-12-11T07:02:22.488Z,0.40
2022-12-11T07:04:55.569Z,0.43
2022-12-11T07:07:25.779Z,0.45
2022-12-11T07:09:56.280Z,0.47
2022-12-11T07:12:26.502Z,0.48
2022-12-11T07:14:56.707Z,0.50
2022-12-11T07:17:27.182Z,0.57
2022-12-11T07:20:00.375Z,0.56
2022-12-11T07:22:32.308Z,0.63
2022-12-11T07:25:02.515Z,0.66
2022-12-11T07:27:32.887Z,0.67
2022-12-11T07:30:03.126Z,0.66
2022-12-11T07:32:33.269Z,0.69
2022-12-11T07:35:07.005Z,0.72
2022-12-11T07:37:38.592Z,0.72
2022-12-11T07:40:11.439Z,0.76
2022-12-11T07:42:46.261Z,0.82
2022-12-11T07:45:23.548Z,0.83
2022-12-11T07:48:04.383Z,0.85
2022-12-11T07:50:40.027Z,0.86
2022-12-11T07:53:13.460Z,0.88
2022-12-11T07:55:44.285Z,0.92
2022-12-11T07:58:18.789Z,0.94
2022-12-11T08:00:52.325Z,0.96
2022-12-11T08:03:23.748Z,0.99
2022-12-11T08:05:56.523Z,1.03
2022-12-11T08:08:29.746Z,1.08
2022-12-11T08:11:04.414Z,1.13
2022-12-11T08:13:35.631Z,1.08
2022-12-11T08:16:07.863Z,1.17
2022-12-11T08:18:39.248Z,1.14
2022-12-11T08:21:14.342Z,1.21
2022-12-11T08:23:44.716Z,1.28
2022-12-11T08:26:18.719Z,1.20
2022-12-11T08:28:49.362Z,1.21
2022-12-11T08:31:20.687Z,1.24
2022-12-11T08:33:51.884Z,1.29
2022-12-11T08:36:26.274Z,1.31
2022-12-11T08:38:58.253Z,1.29
2022-12-11T08:41:30.579Z,1.32
2022-12-11T08:44:01.957Z,1.36
2022-12-11T08:46:36.666Z,1.43
2022-12-11T08:49:08.044Z,1.45
2022-12-11T08:51:41.267Z,1.43
2022-12-11T08:54:12.999Z,1.46
2022-12-11T08:56:43.033Z,1.45
2022-12-11T08:59:13.176Z,1.44
2022-12-11T09:01:43.254Z,1.55
2022-12-11T09:04:13.324Z,1.51
2022-12-11T09:06:46.131Z,1.49
2022-12-11T09:09:16.310Z,1.51
2022-12-11T09:11:46.691Z,1.47
2022-12-11T09:14:16.911Z,1.60
2022-12-11T09:16:47.078Z,1.57
2022-12-11T09:19:19.313Z,1.55
2022-12-11T09:21:52.191Z,1.69
2022-12-11T09:24:22.434Z,1.59
2022-12-11T09:26:52.428Z,1.51
2022-12-11T09:29:22.729Z,1.60
2022-12-11T09:31:52.842Z,1.60
2022-12-11T09:34:29.040Z,1.59
2022-12-11T09:37:02.496Z,1.63
2022-12-11T09:39:33.820Z,1.63
2022-12-11T09:42:11.697Z,1.64
2022-12-11T09:44:45.643Z,1.60
2022-12-11T09:47:24.165Z,1.72
2022-12-11T09:50:01.795Z,1.61
2022-12-11T09:52:37.969Z,1.60
2022-12-11T09:55:17.595Z,1.56
2022-12-11T09:57:57.765Z,1.65
2022-12-11T10:00:36.577Z,1.70
2022-12-11T10:03:36.195Z,1.66
2022-12-11T10:06:15.741Z,1.63
2022-12-11T10:09:00.350Z,1.63
2022-12-11T10:11:56.105Z,1.65
2022-12-11T10:14:35.670Z,1.72
2022-12-11T10:17:10.222Z,1.65
2022-12-11T10:19:41.192Z,1.61
2022-12-11T10:22:20.635Z,1.63
2022-12-11T10:25:15.023Z,1.61
2022-12-11T10:27:45.488Z,1.71
2022-12-11T10:30:19.784Z,1.75
2022-12-11T10:32:56.737Z,1.72
2022-12-11T10:35:40.047Z,1.65
2022-12-11T10:38:18.628Z,1.64
2022-12-11T10:40:55.263Z,1.63
2022-12-11T10:43:35.943Z,1.59
2022-12-11T10:46:07.688Z,1.60
2022-12-11T10:48:42.540Z,1.57
2022-12-11T10:51:16.660Z,1.66
2022-12-11T10:53:47.530Z,1.58
2022-12-11T10:56:30.113Z,1.63
2022-12-11T10:59:02.609Z,1.67
2022-12-11T11:01:35.657Z,1.66
2022-12-11T11:04:09.512Z,1.73
2022-12-11T11:06:39.235Z,1.71
2022-12-11T11:09:32.059Z,1.73
2022-12-11T11:12:08.072Z,1.77
2022-12-11T11:14:38.767Z,1.70
2022-12-11T11:17:08.968Z,1.73
2022-12-11T11:19:40.210Z,1.79
2022-12-11T11:22:15.829Z,1.74
2022-12-11T11:24:48.819Z,1.83
2022-12-11T11:27:31.452Z,1.95
2022-12-11T11:30:04.094Z,1.88
2022-12-11T11:32:37.160Z,1.83
2022-12-11T11:35:25.757Z,1.85
2022-12-11T11:38:07.296Z,1.82
2022-12-11T11:40:44.154Z,1.86
2022-12-11T11:43:22.797Z,1.91
2022-12-11T11:45:58.509Z,1.84
2022-12-11T11:48:38.918Z,1.93
2022-12-11T11:51:22.764Z,1.90
2022-12-11T11:53:54.666Z,1.90
2022-12-11T11:56:31.688Z,1.84
2022-12-11T11:59:15.194Z,1.97
2022-12-11T12:01:46.387Z,1.89
2022-12-11T12:04:18.243Z,1.92
2022-12-11T12:07:03.497Z,1.85
2022-12-11T12:09:46.689Z,1.80
2022-12-11T12:12:31.051Z,1.82
2022-12-11T12:15:29.375Z,1.83
2022-12-11T12:18:02.219Z,1.80
2022-12-11T12:20:40.540Z,1.73
2022-12-11T12:23:34.868Z,1.75
2022-12-11T12:26:14.052Z,1.69
2022-12-11T12:28:52.007Z,1.71
2022-12-11T12:31:40.111Z,1.70
2022-12-11T12:34:21.298Z,1.73
2022-12-11T12:37:01.072Z,1.71
2022-12-11T12:39:39.954Z,1.68
2022-12-11T12:42:21.036Z,1.79
2022-12-11T12:45:01.487Z,1.77
2022-12-11T12:47:37.725Z,1.71
2022-12-11T12:50:15.301Z,1.69
2022-12-11T12:52:49.513Z,1.69
2022-12-11T12:55:26.221Z,1.64
2022-12-11T12:58:00.454Z,1.64
2022-12-11T13:00:36.589Z,1.62
2022-12-11T13:03:17.215Z,1.60
2022-12-11T13:05:57.814Z,1.62
2022-12-11T13:08:28.952Z,1.64
2022-12-11T13:11:07.960Z,1.59
2022-12-11T13:13:40.884Z,1.54
2022-12-11T13:16:30.129Z,1.57
2022-12-11T13:19:03.094Z,1.53
2022-12-11T13:21:35.994Z,1.46
2022-12-11T13:24:27.374Z,1.46
2022-12-11T13:26:58.120Z,1.37
2022-12-11T13:29:32.230Z,1.37
2022-12-11T13:32:04.444Z,1.37
2022-12-11T13:34:40.820Z,1.39
2022-12-11T13:37:27.976Z,1.37
2022-12-11T13:39:59.420Z,1.42
2022-12-11T13:42:35.594Z,1.34
2022-12-11T13:45:07.206Z,1.31
2022-12-11T13:47:39.658Z,1.29
2022-12-11T13:50:22.433Z,1.27
2022-12-11T13:52:59.584Z,1.26
2022-12-11T13:55:32.637Z,1.23
2022-12-11T13:58:03.478Z,1.18
2022-12-11T14:00:35.673Z,1.17
2022-12-11T14:03:09.163Z,1.20
2022-12-11T14:05:44.529Z,1.18
2022-12-11T14:08:21.440Z,1.18
2022-12-11T14:10:56.026Z,1.16
2022-12-11T14:13:30.485Z,1.12
2022-12-11T14:16:00.786Z,1.12
2022-12-11T14:18:34.821Z,1.11
2022-12-11T14:21:09.241Z,1.12
2022-12-11T14:23:40.496Z,1.11
2022-12-11T14:26:21.605Z,1.12
2022-12-11T14:28:52.048Z,1.08
2022-12-11T14:31:35.165Z,1.11
2022-12-11T14:34:10.644Z,1.05
2022-12-11T14:36:44.517Z,1.04
2022-12-11T14:39:16.934Z,1.01
2022-12-11T14:41:55.886Z,1.05
2022-12-11T14:44:29.422Z,1.00
2022-12-11T14:47:03.917Z,1.00
2022-12-11T14:49:44.505Z,0.96
2022-12-11T14:52:24.223Z,1.00
2022-12-11T14:54:58.119Z,0.92
2022-12-11T14:57:30.635Z,0.88
2022-12-11T15:00:01.352Z,0.87
2022-12-11T15:02:34.228Z,0.86
2022-12-11T15:05:15.445Z,0.87
2022-12-11T15:07:58.995Z,0.87
2022-12-11T15:10:36.477Z,0.81
2022-12-11T15:13:08.822Z,0.83
2022-12-11T15:15:48.262Z,0.80
2022-12-11T15:18:25.229Z,0.83
2022-12-11T15:21:00.179Z,0.78
2022-12-11T15:23:34.123Z,0.74
2022-12-11T15:26:05.412Z,0.71
2022-12-11T15:28:38.335Z,0.70
2022-12-11T15:31:23.603Z,0.73
2022-12-11T15:33:54.102Z,0.63
2022-12-11T15:36:28.263Z,0.64
2022-12-11T15:39:02.005Z,0.58
2022-12-11T15:41:34.751Z,0.58
2022-12-11T15:44:06.652Z,0.62
2022-12-11T15:46:40.051Z,0.59
2022-12-11T15:49:15.523Z,0.61
2022-12-11T15:51:45.710Z,0.60
2022-12-11T15:54:18.421Z,0.55
2022-12-11T15:56:48.855Z,0.57
2022-12-11T15:59:19.381Z,0.58
2022-12-11T16:01:49.527Z,0.49
2022-12-11T16:04:19.606Z,0.50
2022-12-11T16:06:49.702Z,0.52
2022-12-11T16:09:22.659Z,0.49
2022-12-11T16:11:52.820Z,0.56
2022-12-11T16:14:23.028Z,0.49
2022-12-11T16:16:53.053Z,0.48
2022-12-11T16:19:23.168Z,0.50
2022-12-11T16:21:53.362Z,0.44
2022-12-11T16:24:26.284Z,0.47
2022-12-11T16:26:56.739Z,0.41
2022-12-11T16:29:27.032Z,0.41
2022-12-11T16:31:57.674Z,0.35
2022-12-11T16:34:28.601Z,0.42
2022-12-11T16:37:01.512Z,0.29
2022-12-11T16:39:34.385Z,0.29
2022-12-11T16:42:04.523Z,0.35
2022-12-11T16:44:38.347Z,0.29
2022-12-11T16:47:14.298Z,0.27
2022-12-11T16:49:45.380Z,0.30
2022-12-11T16:52:21.813Z,0.35
2022-12-11T16:54:55.068Z,0.20
2022-12-11T16:57:25.095Z,0.19
2022-12-11T16:59:55.626Z,0.14
2022-12-11T17:02:26.494Z,0.14
2022-12-11T17:04:56.684Z,0.12
2022-12-11T17:07:27.181Z,0.15
2022-12-11T17:10:00.950Z,0.06
2022-12-11T17:12:31.048Z,0.08
2022-12-11T17:15:01.409Z,0.07
2022-12-11T17:17:33.268Z,0.11
2022-12-11T17:20:03.319Z,0.05
2022-12-11T17:22:33.522Z,0.01
2022-12-11T17:25:07.063Z,0.02
2022-12-11T17:27:38.169Z,0.03
2022-12-11T17:30:09.574Z,-0.02
2022-12-11T17:32:39.919Z,-0.07
2022-12-11T17:35:11.226Z,-0.04
2022-12-11T17:37:41.758Z,-0.09
2022-12-11T17:40:15.133Z,-0.09
2022-12-11T17:42:45.830Z,-0.17
2022-12-11T17:45:19.090Z,-0.15
2022-12-11T17:47:50.044Z,-0.18
2022-12-11T17:50:20.108Z,-0.20
2022-12-11T17:52:50.479Z,-0.25
2022-12-11T17:55:23.347Z,-0.22
2022-12-11T17:57:53.704Z,-0.21
2022-12-11T18:00:25.385Z,-0.26
2022-12-11T18:02:58.076Z,-0.25
2022-12-11T18:05:28.893Z,-0.29
2022-12-11T18:08:00.542Z,-0.32
2022-12-11T18:10:33.327Z,-0.31
2022-12-11T18:13:03.626Z,-0.35
2022-12-11T18:15:37.107Z,-0.34
2022-12-11T18:18:10.498Z,-0.30
2022-12-11T18:20:41.438Z,-0.35
2022-12-11T18:23:11.649Z,-0.39
2022-12-11T18:25:44.459Z,-0.43
2022-12-11T18:28:15.288Z,-0.52
2022-12-11T18:30:46.122Z,-0.47
2022-12-11T18:33:16.485Z,-0.51
2022-12-11T18:35:47.805Z,-0.48
2022-12-11T18:38:17.880Z,-0.50
2022-12-11T18:40:50.822Z,-0.43
2022-12-11T18:43:21.646Z,-0.45
2022-12-11T18:45:52.347Z,-0.47
2022-12-11T18:48:22.447Z,-0.46
2022-12-11T18:50:53.960Z,-0.44
2022-12-11T18:53:24.184Z,-0.48
2022-12-11T18:56:00.357Z,-0.47
2022-12-11T18:58:30.779Z,-0.44
2022-12-11T19:01:01.796Z,-0.53
2022-12-11T19:03:32.207Z,-0.49
2022-12-11T19:06:10.124Z,-0.48
2022-12-11T19:08:40.648Z,-0.54
2022-12-11T19:11:18.047Z,-0.55
2022-12-11T19:13:48.867Z,-0.58
2022-12-11T19:16:21.114Z,-0.62
2022-12-11T19:18:52.511Z,-0.61
2022-12-11T19:21:22.791Z,-0.67
2022-12-11T19:23:53.046Z,-0.72
2022-12-11T19:26:27.710Z,-0.72
2022-12-11T19:29:00.235Z,-0.75
2022-12-11T19:31:32.063Z,-0.71
2022-12-11T19:34:03.249Z,-0.76
2022-12-11T19:36:35.638Z,-0.75
2022-12-11T19:39:12.575Z,-0.74
2022-12-11T19:41:46.302Z,-0.70
2022-12-11T19:44:16.367Z,-0.74
2022-12-11T19:46:46.898Z,-0.76
2022-12-11T19:49:17.200Z,-0.70
2022-12-11T19:51:47.587Z,-0.74
2022-12-11T19:54:19.251Z,-0.80
2022-12-11T19:56:52.161Z,-0.83
2022-12-11T19:59:22.262Z,-0.78
2022-12-11T20:01:54.145Z,-0.80
2022-12-11T20:04:24.340Z,-0.83
2022-12-11T20:06:54.658Z,-0.85
2022-12-11T20:09:24.811Z,-0.82
2022-12-11T20:11:57.728Z,-0.89
2022-12-11T20:14:30.384Z,-0.83
2022-12-11T20:17:16.148Z,-0.85
2022-12-11T20:19:46.353Z,-0.92
2022-12-11T20:22:16.485Z,-0.97
2022-12-11T20:24:46.544Z,-0.93
2022-12-11T20:27:19.259Z,-0.95
2022-12-11T20:29:49.434Z,-1.01
2022-12-11T20:32:19.467Z,-0.98
2022-12-11T20:34:49.463Z,-1.05
2022-12-11T20:37:20.031Z,-1.02
2022-12-11T20:39:50.137Z,-1.00
2022-12-11T20:42:22.874Z,-1.03
2022-12-11T20:44:53.664Z,-1.08
2022-12-11T20:47:24.138Z,-1.08
2022-12-11T20:49:55.241Z,-1.15
2022-12-11T20:52:25.618Z,-1.12
2022-12-11T20:54:55.799Z,-1.14
2022-12-11T20:57:28.723Z,-1.10
2022-12-11T20:59:59.251Z,-1.18
2022-12-11T21:02:31.328Z,-1.22
2022-12-11T21:05:01.475Z,-1.31
2022-12-11T21:07:31.674Z,-1.38
2022-12-11T21:10:01.728Z,-1.36
2022-12-11T21:12:34.607Z,-1.42
2022-12-11T21:15:04.762Z,-1.44
2022-12-11T21:17:35.100Z,-1.39
2022-12-11T21:20:05.258Z,-1.52
2022-12-11T21:22:35.307Z,-1.50
2022-12-11T21:25:05.559Z,-1.58
2022-12-11T21:27:38.477Z,-1.56
2022-12-11T21:30:09.933Z,-1.70
2022-12-11T21:32:40.083Z,-1.65
2022-12-11T21:35:11.932Z,-1.75
2022-12-11T21:37:42.687Z,-1.66
2022-12-11T21:40:13.979Z,-1.83
2022-12-11T21:42:48.453Z,-1.86
2022-12-11T21:45:59.238Z,-1.80
2022-12-11T21:48:09.782Z,-1.91
2022-12-11T21:50:40.020Z,-1.95
2022-12-11T21:53:10.443Z,-1.95
2022-12-11T21:55:43.442Z,-1.95
2022-12-11T21:58:16.082Z,-1.93
2022-12-11T22:00:50.615Z,-1.96
2022-12-11T22:03:20.732Z,-2.02
2022-12-11T22:05:50.933Z,-2.06
2022-12-11T22:08:21.322Z,-2.12
2022-12-11T22:10:52.326Z,-2.13
2022-12-11T22:13:25.054Z,-2.12
2022-12-11T22:15:55.582Z,-2.26
2022-12-11T22:18:27.187Z,-2.28
2022-12-11T22:20:57.688Z,-2.25
2022-12-11T22:23:28.074Z,-2.26
2022-12-11T22:25:58.159Z,-2.25
2022-12-11T22:28:30.808Z,-2.24
2022-12-11T22:31:04.597Z,-2.17
2022-12-11T22:33:35.129Z,-2.33
2022-12-11T22:36:05.391Z,-2.39
2022-12-11T22:38:36.915Z,-2.48
2022-12-11T22:41:17.559Z,-2.66
2022-12-11T22:43:55.284Z,-2.61
2022-12-11T22:46:28.340Z,-2.61
2022-12-11T22:48:59.608Z,-2.69
2022-12-11T22:51:30.100Z,-2.66
2022-12-11T22:54:01.351Z,-2.61
2022-12-11T22:56:31.518Z,-2.57
2022-12-11T22:59:04.455Z,-2.55
2022-12-11T23:01:34.749Z,-2.59
2022-12-11T23:04:04.829Z,-2.51
2022-12-11T23:06:34.918Z,-2.56
2022-12-11T23:09:05.411Z,-2.46
2022-12-11T23:11:38.554Z,-2.50
2022-12-11T23:14:14.273Z,-2.48
2022-12-11T23:16:45.293Z,-2.42
2022-12-11T23:19:18.522Z,-2.41
2022-12-11T23:21:51.430Z,-2.37
2022-12-11T23:24:21.509Z,-2.38
2022-12-11T23:26:52.250Z,-2.40
2022-12-11T23:29:25.053Z,-2.38
2022-12-11T23:31:55.242Z,-2.40
2022-12-11T23:34:25.312Z,-2.39
2022-12-11T23:36:55.641Z,-2.43
2022-12-11T23:39:25.885Z,-2.43
2022-12-11T23:41:56.029Z,-2.45
2022-12-11T23:44:28.762Z,-2.43
2022-12-11T23:46:59.373Z,-2.43
2022-12-11T23:49:30.417Z,-2.45
2022-12-11T23:52:08.861Z,-2.54
2022-12-11T23:54:39.194Z,-2.49
2022-12-11T23:57:09.429Z,-2.50
2022-12-11T23:59:47.105Z,-2.50
